sensor_id;sensor_type;location;lat;lon;timestamp;temperature;humidity
68801;SHT31;55784;50.734;7.086;2022-11-20T00:00:41;4.59;82.89
68801;SHT31;55784;50.734;7.086;2022-11-20T00:03:07;4.58;82.74
68801;SHT31;55784;50.734;7.086;2022-11-20T00:05:33;4.62;82.68
68801;SHT31;55784;50.734;7.086;2022-11-20T00:07:58;4.63;82.48
68801;SHT31;55784;50.734;7.086;2022-11-20T00:10:23;4.53;82.83
68801;SHT31;55784;50.734;7.086;2022-11-20T00:12:48;4.60;83.07
68801;SHT31;55784;50.734;7.086;2022-11-20T00:15:14;4.58;83.54
68801;SHT31;55784;50.734;7.086;2022-11-20T00:17:39;4.56;84.41
68801;SHT31;55784;50.734;7.086;2022-11-20T00:20:05;4.52;84.80
68801;SHT31;55784;50.734;7.086;2022-11-20T00:22:30;4.52;85.34
68801;SHT31;55784;50.734;7.086;2022-11-20T00:24:55;4.44;85.46
68801;SHT31;55784;50.734;7.086;2022-11-20T00:27:22;4.38;85.89
68801;SHT31;55784;50.734;7.086;2022-11-20T00:29:47;4.45;85.76
68801;SHT31;55784;50.734;7.086;2022-11-20T00:32:12;4.49;85.79
68801;SHT31;55784;50.734;7.086;2022-11-20T00:34:38;4.39;86.26
68801;SHT31;55784;50.734;7.086;2022-11-20T00:37:03;4.45;86.13
68801;SHT31;55784;50.734;7.086;2022-11-20T00:39:28;4.50;86.01
68801;SHT31;55784;50.734;7.086;2022-11-20T00:41:54;4.52;85.99
68801;SHT31;55784;50.734;7.086;2022-11-20T00:44:19;4.53;85.65
68801;SHT31;55784;50.734;7.086;2022-11-20T00:46:44;4.52;85.78
68801;SHT31;55784;50.734;7.086;2022-11-20T00:49:09;4.49;85.81
68801;SHT31;55784;50.734;7.086;2022-11-20T00:51:35;4.48;85.77
68801;SHT31;55784;50.734;7.086;2022-11-20T00:54:00;4.39;86.02
68801;SHT31;55784;50.734;7.086;2022-11-20T00:56:27;4.44;85.98
68801;SHT31;55784;50.734;7.086;2022-11-20T00:58:52;4.44;86.15
68801;SHT31;55784;50.734;7.086;2022-11-20T01:01:20;4.39;86.62
68801;SHT31;55784;50.734;7.086;2022-11-20T01:03:50;4.41;86.84
68801;SHT31;55784;50.734;7.086;2022-11-20T01:06:16;4.41;86.82
68801;SHT31;55784;50.734;7.086;2022-11-20T01:08:42;4.46;86.53
68801;SHT31;55784;50.734;7.086;2022-11-20T01:11:13;4.45;86.45
68801;SHT31;55784;50.734;7.086;2022-11-20T01:13:39;4.49;85.93
68801;SHT31;55784;50.734;7.086;2022-11-20T01:16:14;4.46;85.23
68801;SHT31;55784;50.734;7.086;2022-11-20T01:18:43;4.42;85.41
68801;SHT31;55784;50.734;7.086;2022-11-20T01:21:11;4.38;85.58
68801;SHT31;55784;50.734;7.086;2022-11-20T01:23:40;4.42;85.56
68801;SHT31;55784;50.734;7.086;2022-11-20T01:26:09;4.42;85.29
68801;SHT31;55784;50.734;7.086;2022-11-20T01:28:35;4.39;84.72
68801;SHT31;55784;50.734;7.086;2022-11-20T01:31:02;4.37;85.24
68801;SHT31;55784;50.734;7.086;2022-11-20T01:33:35;4.39;85.41
68801;SHT31;55784;50.734;7.086;2022-11-20T01:36:04;4.45;84.82
68801;SHT31;55784;50.734;7.086;2022-11-20T01:38:30;4.55;84.75
68801;SHT31;55784;50.734;7.086;2022-11-20T01:40:55;4.50;85.40
68801;SHT31;55784;50.734;7.086;2022-11-20T01:43:22;4.56;85.31
68801;SHT31;55784;50.734;7.086;2022-11-20T01:48:28;4.46;85.11
68801;SHT31;55784;50.734;7.086;2022-11-20T01:50:55;4.44;84.72
68801;SHT31;55784;50.734;7.086;2022-11-20T01:53:24;4.46;84.99
68801;SHT31;55784;50.734;7.086;2022-11-20T01:55:55;4.53;84.74
68801;SHT31;55784;50.734;7.086;2022-11-20T01:58:25;4.59;84.56
68801;SHT31;55784;50.734;7.086;2022-11-20T02:00:53;4.65;84.44
68801;SHT31;55784;50.734;7.086;2022-11-20T02:03:19;4.62;84.57
68801;SHT31;55784;50.734;7.086;2022-11-20T02:05:53;4.62;83.94
68801;SHT31;55784;50.734;7.086;2022-11-20T02:08:21;4.53;84.21
68801;SHT31;55784;50.734;7.086;2022-11-20T02:10:47;4.53;83.75
68801;SHT31;55784;50.734;7.086;2022-11-20T02:13:12;4.59;83.81
68801;SHT31;55784;50.734;7.086;2022-11-20T02:15:56;4.55;84.71
68801;SHT31;55784;50.734;7.086;2022-11-20T02:18:23;4.58;85.02
68801;SHT31;55784;50.734;7.086;2022-11-20T02:20:54;4.50;85.00
68801;SHT31;55784;50.734;7.086;2022-11-20T02:23:35;4.48;85.20
68801;SHT31;55784;50.734;7.086;2022-11-20T02:26:06;4.44;85.69
68801;SHT31;55784;50.734;7.086;2022-11-20T02:28:32;4.45;85.95
68801;SHT31;55784;50.734;7.086;2022-11-20T02:30:58;4.41;86.14
68801;SHT31;55784;50.734;7.086;2022-11-20T02:33:23;4.48;86.10
68801;SHT31;55784;50.734;7.086;2022-11-20T02:35:49;4.56;85.68
68801;SHT31;55784;50.734;7.086;2022-11-20T02:38:14;4.53;85.52
68801;SHT31;55784;50.734;7.086;2022-11-20T02:40:40;4.59;85.27
68801;SHT31;55784;50.734;7.086;2022-11-20T02:43:06;4.48;85.46
68801;SHT31;55784;50.734;7.086;2022-11-20T02:45:32;4.44;85.21
68801;SHT31;55784;50.734;7.086;2022-11-20T02:47:57;4.48;84.94
68801;SHT31;55784;50.734;7.086;2022-11-20T02:50:22;4.44;85.11
68801;SHT31;55784;50.734;7.086;2022-11-20T02:52:48;4.39;85.40
68801;SHT31;55784;50.734;7.086;2022-11-20T02:55:13;4.42;85.29
68801;SHT31;55784;50.734;7.086;2022-11-20T02:57:38;4.44;85.18
68801;SHT31;55784;50.734;7.086;2022-11-20T03:00:04;4.45;85.05
68801;SHT31;55784;50.734;7.086;2022-11-20T03:02:31;4.39;85.43
68801;SHT31;55784;50.734;7.086;2022-11-20T03:04:56;4.38;85.71
68801;SHT31;55784;50.734;7.086;2022-11-20T03:07:21;4.35;85.51
68801;SHT31;55784;50.734;7.086;2022-11-20T03:09:46;4.31;85.61
68801;SHT31;55784;50.734;7.086;2022-11-20T03:12:12;4.37;85.71
68801;SHT31;55784;50.734;7.086;2022-11-20T03:14:37;4.42;85.41
68801;SHT31;55784;50.734;7.086;2022-11-20T03:17:02;4.48;85.19
68801;SHT31;55784;50.734;7.086;2022-11-20T03:19:28;4.49;84.70
68801;SHT31;55784;50.734;7.086;2022-11-20T03:21:53;4.46;84.59
68801;SHT31;55784;50.734;7.086;2022-11-20T03:24:18;4.56;84.69
68801;SHT31;55784;50.734;7.086;2022-11-20T03:26:43;4.56;84.70
68801;SHT31;55784;50.734;7.086;2022-11-20T03:29:09;4.60;84.60
68801;SHT31;55784;50.734;7.086;2022-11-20T03:31:37;4.65;84.52
68801;SHT31;55784;50.734;7.086;2022-11-20T03:34:03;4.63;84.63
68801;SHT31;55784;50.734;7.086;2022-11-20T03:36:29;4.66;84.78
68801;SHT31;55784;50.734;7.086;2022-11-20T03:38:55;4.63;85.11
68801;SHT31;55784;50.734;7.086;2022-11-20T03:41:23;4.63;85.16
68801;SHT31;55784;50.734;7.086;2022-11-20T03:46:21;4.59;85.67
68801;SHT31;55784;50.734;7.086;2022-11-20T03:48:47;4.65;85.66
68801;SHT31;55784;50.734;7.086;2022-11-20T03:51:26;4.65;85.71
68801;SHT31;55784;50.734;7.086;2022-11-20T03:53:53;4.62;85.88
68801;SHT31;55784;50.734;7.086;2022-11-20T03:56:22;4.60;86.00
68801;SHT31;55784;50.734;7.086;2022-11-20T03:58:48;4.56;85.99
68801;SHT31;55784;50.734;7.086;2022-11-20T04:01:22;4.45;86.16
68801;SHT31;55784;50.734;7.086;2022-11-20T04:03:48;4.48;86.22
68801;SHT31;55784;50.734;7.086;2022-11-20T04:06:18;4.49;86.22
68801;SHT31;55784;50.734;7.086;2022-11-20T04:08:44;4.49;86.26
68801;SHT31;55784;50.734;7.086;2022-11-20T04:11:31;4.56;86.08
68801;SHT31;55784;50.734;7.086;2022-11-20T04:13:59;4.60;85.95
68801;SHT31;55784;50.734;7.086;2022-11-20T04:16:25;4.70;85.87
68801;SHT31;55784;50.734;7.086;2022-11-20T04:18:55;4.76;85.45
68801;SHT31;55784;50.734;7.086;2022-11-20T04:21:20;4.73;85.13
68801;SHT31;55784;50.734;7.086;2022-11-20T04:23:46;4.73;85.35
68801;SHT31;55784;50.734;7.086;2022-11-20T04:26:12;4.70;85.71
68801;SHT31;55784;50.734;7.086;2022-11-20T04:28:38;4.62;86.14
68801;SHT31;55784;50.734;7.086;2022-11-20T04:31:11;4.62;86.20
68801;SHT31;55784;50.734;7.086;2022-11-20T04:33:37;4.55;86.33
68801;SHT31;55784;50.734;7.086;2022-11-20T04:36:05;4.56;86.16
68801;SHT31;55784;50.734;7.086;2022-11-20T04:38:31;4.50;86.42
68801;SHT31;55784;50.734;7.086;2022-11-20T04:41:01;4.55;86.19
68801;SHT31;55784;50.734;7.086;2022-11-20T04:43:27;4.56;86.22
68801;SHT31;55784;50.734;7.086;2022-11-20T04:45:54;4.65;86.04
68801;SHT31;55784;50.734;7.086;2022-11-20T04:48:19;4.69;85.96
68801;SHT31;55784;50.734;7.086;2022-11-20T04:50:45;4.72;85.93
68801;SHT31;55784;50.734;7.086;2022-11-20T04:53:10;4.73;85.99
68801;SHT31;55784;50.734;7.086;2022-11-20T04:55:35;4.69;86.10
68801;SHT31;55784;50.734;7.086;2022-11-20T04:58:00;4.65;86.38
68801;SHT31;55784;50.734;7.086;2022-11-20T05:00:26;4.65;86.41
68801;SHT31;55784;50.734;7.086;2022-11-20T05:02:51;4.65;86.56
68801;SHT31;55784;50.734;7.086;2022-11-20T05:05:16;4.68;86.64
68801;SHT31;55784;50.734;7.086;2022-11-20T05:07:42;4.75;86.54
68801;SHT31;55784;50.734;7.086;2022-11-20T05:10:07;4.75;86.41
68801;SHT31;55784;50.734;7.086;2022-11-20T05:12:33;4.72;86.57
68801;SHT31;55784;50.734;7.086;2022-11-20T05:14:58;4.55;87.18
68801;SHT31;55784;50.734;7.086;2022-11-20T05:17:23;4.56;87.26
68801;SHT31;55784;50.734;7.086;2022-11-20T05:19:48;4.56;87.26
68801;SHT31;55784;50.734;7.086;2022-11-20T05:22:14;4.52;87.14
68801;SHT31;55784;50.734;7.086;2022-11-20T05:24:39;4.39;87.56
68801;SHT31;55784;50.734;7.086;2022-11-20T05:27:04;4.45;87.56
68801;SHT31;55784;50.734;7.086;2022-11-20T05:29:29;4.50;87.45
68801;SHT31;55784;50.734;7.086;2022-11-20T05:31:55;4.48;87.36
68801;SHT31;55784;50.734;7.086;2022-11-20T05:34:20;4.50;87.24
68801;SHT31;55784;50.734;7.086;2022-11-20T05:36:45;4.53;87.20
68801;SHT31;55784;50.734;7.086;2022-11-20T05:39:10;4.55;87.17
68801;SHT31;55784;50.734;7.086;2022-11-20T05:41:36;4.56;87.20
68801;SHT31;55784;50.734;7.086;2022-11-20T05:44:01;4.53;87.15
68801;SHT31;55784;50.734;7.086;2022-11-20T05:46:27;4.45;87.40
68801;SHT31;55784;50.734;7.086;2022-11-20T05:48:52;4.44;87.54
68801;SHT31;55784;50.734;7.086;2022-11-20T05:51:18;4.17;88.48
68801;SHT31;55784;50.734;7.086;2022-11-20T05:53:44;3.98;89.36
68801;SHT31;55784;50.734;7.086;2022-11-20T05:56:15;4.04;89.52
68801;SHT31;55784;50.734;7.086;2022-11-20T05:58:40;4.09;89.09
68801;SHT31;55784;50.734;7.086;2022-11-20T06:03:36;3.91;89.63
68801;SHT31;55784;50.734;7.086;2022-11-20T06:06:03;3.94;89.77
68801;SHT31;55784;50.734;7.086;2022-11-20T06:08:29;3.95;89.67
68801;SHT31;55784;50.734;7.086;2022-11-20T06:10:54;3.87;89.89
68801;SHT31;55784;50.734;7.086;2022-11-20T06:13:20;3.97;89.68
68801;SHT31;55784;50.734;7.086;2022-11-20T06:15:52;3.81;90.25
68801;SHT31;55784;50.734;7.086;2022-11-20T06:18:18;3.78;90.40
68801;SHT31;55784;50.734;7.086;2022-11-20T06:20:43;3.74;90.45
68801;SHT31;55784;50.734;7.086;2022-11-20T06:23:09;3.74;90.43
68801;SHT31;55784;50.734;7.086;2022-11-20T06:25:38;3.80;90.43
68801;SHT31;55784;50.734;7.086;2022-11-20T06:28:03;3.86;89.98
68801;SHT31;55784;50.734;7.086;2022-11-20T06:30:29;3.78;89.67
68801;SHT31;55784;50.734;7.086;2022-11-20T06:32:54;3.77;90.16
68801;SHT31;55784;50.734;7.086;2022-11-20T06:35:19;3.88;89.95
68801;SHT31;55784;50.734;7.086;2022-11-20T06:37:44;3.87;89.79
68801;SHT31;55784;50.734;7.086;2022-11-20T06:40:10;3.78;90.19
68801;SHT31;55784;50.734;7.086;2022-11-20T06:42:35;3.88;89.73
68801;SHT31;55784;50.734;7.086;2022-11-20T06:45:01;3.76;89.86
68801;SHT31;55784;50.734;7.086;2022-11-20T06:47:26;3.81;89.82
68801;SHT31;55784;50.734;7.086;2022-11-20T06:49:51;3.90;89.75
68801;SHT31;55784;50.734;7.086;2022-11-20T06:52:17;3.77;89.75
68801;SHT31;55784;50.734;7.086;2022-11-20T06:54:42;3.74;89.57
68801;SHT31;55784;50.734;7.086;2022-11-20T06:57:07;3.73;89.91
68801;SHT31;55784;50.734;7.086;2022-11-20T06:59:32;3.73;89.84
68801;SHT31;55784;50.734;7.086;2022-11-20T07:01:58;3.71;89.25
68801;SHT31;55784;50.734;7.086;2022-11-20T07:04:23;3.73;89.48
68801;SHT31;55784;50.734;7.086;2022-11-20T07:06:48;3.67;89.03
68801;SHT31;55784;50.734;7.086;2022-11-20T07:09:14;3.71;89.46
68801;SHT31;55784;50.734;7.086;2022-11-20T07:11:39;3.87;88.84
68801;SHT31;55784;50.734;7.086;2022-11-20T07:14:04;3.99;88.24
68801;SHT31;55784;50.734;7.086;2022-11-20T07:16:30;3.95;88.38
68801;SHT31;55784;50.734;7.086;2022-11-20T07:18:55;3.97;88.20
68801;SHT31;55784;50.734;7.086;2022-11-20T07:21:20;3.98;88.03
68801;SHT31;55784;50.734;7.086;2022-11-20T07:23:46;4.02;87.75
68801;SHT31;55784;50.734;7.086;2022-11-20T07:26:11;4.04;87.39
68801;SHT31;55784;50.734;7.086;2022-11-20T07:28:37;4.01;87.08
68801;SHT31;55784;50.734;7.086;2022-11-20T07:31:03;3.98;87.49
68801;SHT31;55784;50.734;7.086;2022-11-20T07:33:29;4.01;86.99
68801;SHT31;55784;50.734;7.086;2022-11-20T07:35:54;3.94;87.48
68801;SHT31;55784;50.734;7.086;2022-11-20T07:38:20;3.99;87.54
68801;SHT31;55784;50.734;7.086;2022-11-20T07:40:45;4.12;87.34
68801;SHT31;55784;50.734;7.086;2022-11-20T07:43:10;4.27;87.15
68801;SHT31;55784;50.734;7.086;2022-11-20T07:45:35;4.39;86.47
68801;SHT31;55784;50.734;7.086;2022-11-20T07:48:01;4.42;85.85
68801;SHT31;55784;50.734;7.086;2022-11-20T07:50:26;4.46;85.89
68801;SHT31;55784;50.734;7.086;2022-11-20T07:52:52;4.37;85.84
68801;SHT31;55784;50.734;7.086;2022-11-20T07:55:17;4.42;85.68
68801;SHT31;55784;50.734;7.086;2022-11-20T07:57:43;4.56;85.71
68801;SHT31;55784;50.734;7.086;2022-11-20T08:00:10;4.69;85.32
68801;SHT31;55784;50.734;7.086;2022-11-20T08:02:39;4.73;84.76
68801;SHT31;55784;50.734;7.086;2022-11-20T08:05:08;4.82;84.50
68801;SHT31;55784;50.734;7.086;2022-11-20T08:07:41;4.87;84.05
68801;SHT31;55784;50.734;7.086;2022-11-20T08:10:09;5.01;83.75
68801;SHT31;55784;50.734;7.086;2022-11-20T08:12:48;5.09;83.42
68801;SHT31;55784;50.734;7.086;2022-11-20T08:15:33;5.11;83.58
68801;SHT31;55784;50.734;7.086;2022-11-20T08:18:12;5.16;83.31
68801;SHT31;55784;50.734;7.086;2022-11-20T08:20:38;5.23;83.10
68801;SHT31;55784;50.734;7.086;2022-11-20T08:23:05;5.30;83.14
68801;SHT31;55784;50.734;7.086;2022-11-20T08:25:31;5.40;82.90
68801;SHT31;55784;50.734;7.086;2022-11-20T08:27:58;5.54;82.78
68801;SHT31;55784;50.734;7.086;2022-11-20T08:30:24;5.48;82.60
68801;SHT31;55784;50.734;7.086;2022-11-20T08:32:49;5.59;82.52
68801;SHT31;55784;50.734;7.086;2022-11-20T08:35:14;5.69;82.17
68801;SHT31;55784;50.734;7.086;2022-11-20T08:37:40;5.75;82.18
68801;SHT31;55784;50.734;7.086;2022-11-20T08:40:09;5.76;82.34
68801;SHT31;55784;50.734;7.086;2022-11-20T08:42:34;5.81;82.19
68801;SHT31;55784;50.734;7.086;2022-11-20T08:45:00;5.89;81.89
68801;SHT31;55784;50.734;7.086;2022-11-20T08:47:25;5.95;81.26
68801;SHT31;55784;50.734;7.086;2022-11-20T08:49:50;5.99;81.50
68801;SHT31;55784;50.734;7.086;2022-11-20T08:52:17;6.09;81.53
68801;SHT31;55784;50.734;7.086;2022-11-20T08:54:42;6.05;81.29
68801;SHT31;55784;50.734;7.086;2022-11-20T08:57:07;5.92;81.43
68801;SHT31;55784;50.734;7.086;2022-11-20T08:59:33;5.94;81.55
68801;SHT31;55784;50.734;7.086;2022-11-20T09:01:58;6.10;81.40
68801;SHT31;55784;50.734;7.086;2022-11-20T09:04:23;6.22;80.79
68801;SHT31;55784;50.734;7.086;2022-11-20T09:06:49;6.34;80.41
68801;SHT31;55784;50.734;7.086;2022-11-20T09:09:16;6.29;79.98
68801;SHT31;55784;50.734;7.086;2022-11-20T09:11:42;6.32;80.07
68801;SHT31;55784;50.734;7.086;2022-11-20T09:14:07;6.29;79.98
68801;SHT31;55784;50.734;7.086;2022-11-20T09:16:33;6.27;79.95
68801;SHT31;55784;50.734;7.086;2022-11-20T09:18:58;6.53;79.46
68801;SHT31;55784;50.734;7.086;2022-11-20T09:21:23;6.66;78.29
68801;SHT31;55784;50.734;7.086;2022-11-20T09:23:49;6.64;77.91
68801;SHT31;55784;50.734;7.086;2022-11-20T09:29:49;6.80;77.98
68801;SHT31;55784;50.734;7.086;2022-11-20T09:32:26;6.87;78.18
68801;SHT31;55784;50.734;7.086;2022-11-20T09:37:30;6.73;78.94
68801;SHT31;55784;50.734;7.086;2022-11-20T09:39:57;6.74;79.24
68801;SHT31;55784;50.734;7.086;2022-11-20T09:54:17;7.41;77.75
68801;SHT31;55784;50.734;7.086;2022-11-20T09:57:10;7.75;76.44
68801;SHT31;55784;50.734;7.086;2022-11-20T09:59:43;7.93;76.24
68801;SHT31;55784;50.734;7.086;2022-11-20T10:07:30;8.16;74.38
68801;SHT31;55784;50.734;7.086;2022-11-20T10:10:01;8.06;74.36
68801;SHT31;55784;50.734;7.086;2022-11-20T10:30:09;7.70;75.63
68801;SHT31;55784;50.734;7.086;2022-11-20T10:33:03;7.62;75.52
68801;SHT31;55784;50.734;7.086;2022-11-20T10:35:38;7.79;74.94
68801;SHT31;55784;50.734;7.086;2022-11-20T10:41:26;7.80;75.03
68801;SHT31;55784;50.734;7.086;2022-11-20T10:44:12;7.61;75.54
68801;SHT31;55784;50.734;7.086;2022-11-20T10:46:45;7.14;76.78
68801;SHT31;55784;50.734;7.086;2022-11-20T10:49:14;7.29;76.73
68801;SHT31;55784;50.734;7.086;2022-11-20T10:51:49;7.42;76.73
68801;SHT31;55784;50.734;7.086;2022-11-20T10:58:03;7.52;76.67
68801;SHT31;55784;50.734;7.086;2022-11-20T11:00:32;7.51;76.60
68801;SHT31;55784;50.734;7.086;2022-11-20T11:02:58;7.41;76.81
68801;SHT31;55784;50.734;7.086;2022-11-20T11:33:39;7.82;76.16
68801;SHT31;55784;50.734;7.086;2022-11-20T11:46:55;7.72;76.60
68801;SHT31;55784;50.734;7.086;2022-11-20T11:49:23;7.75;76.95
68801;SHT31;55784;50.734;7.086;2022-11-20T11:54:57;8.06;76.28
68801;SHT31;55784;50.734;7.086;2022-11-20T11:58:04;8.07;75.92
68801;SHT31;55784;50.734;7.086;2022-11-20T12:00:35;8.01;75.90
68801;SHT31;55784;50.734;7.086;2022-11-20T12:03:28;8.03;76.21
68801;SHT31;55784;50.734;7.086;2022-11-20T12:06:02;8.13;76.18
68801;SHT31;55784;50.734;7.086;2022-11-20T12:08:44;8.08;76.22
68801;SHT31;55784;50.734;7.086;2022-11-20T12:11:23;8.14;76.37
68801;SHT31;55784;50.734;7.086;2022-11-20T12:16:34;8.34;76.17
68801;SHT31;55784;50.734;7.086;2022-11-20T12:22:41;8.24;76.13
68801;SHT31;55784;50.734;7.086;2022-11-20T12:25:40;8.33;75.97
68801;SHT31;55784;50.734;7.086;2022-11-20T12:31:28;8.20;76.51
68801;SHT31;55784;50.734;7.086;2022-11-20T12:34:37;8.30;76.76
68801;SHT31;55784;50.734;7.086;2022-11-20T12:39:49;8.41;76.35
68801;SHT31;55784;50.734;7.086;2022-11-20T12:42:27;8.34;76.57
68801;SHT31;55784;50.734;7.086;2022-11-20T12:45:32;8.28;76.87
68801;SHT31;55784;50.734;7.086;2022-11-20T12:48:20;8.34;77.00
68801;SHT31;55784;50.734;7.086;2022-11-20T12:51:14;8.30;77.38
68801;SHT31;55784;50.734;7.086;2022-11-20T13:03:52;8.23;78.22
68801;SHT31;55784;50.734;7.086;2022-11-20T13:18:16;8.58;77.83
68801;SHT31;55784;50.734;7.086;2022-11-20T13:20:44;8.40;78.07
68801;SHT31;55784;50.734;7.086;2022-11-20T13:23:44;8.45;78.13
68801;SHT31;55784;50.734;7.086;2022-11-20T13:29:11;8.45;78.63
68801;SHT31;55784;50.734;7.086;2022-11-20T13:45:53;8.41;79.44
68801;SHT31;55784;50.734;7.086;2022-11-20T13:48:21;8.34;79.55
68801;SHT31;55784;50.734;7.086;2022-11-20T13:51:04;8.34;79.72
68801;SHT31;55784;50.734;7.086;2022-11-20T13:59:49;8.30;80.55
68801;SHT31;55784;50.734;7.086;2022-11-20T14:02:23;8.28;80.60
68801;SHT31;55784;50.734;7.086;2022-11-20T14:04:52;8.18;81.02
68801;SHT31;55784;50.734;7.086;2022-11-20T14:07:31;8.24;81.00
68801;SHT31;55784;50.734;7.086;2022-11-20T14:10:04;8.24;81.11
68801;SHT31;55784;50.734;7.086;2022-11-20T14:12:34;8.34;81.04
68801;SHT31;55784;50.734;7.086;2022-11-20T14:15:30;8.33;81.10
68801;SHT31;55784;50.734;7.086;2022-11-20T14:18:20;8.31;81.19
68801;SHT31;55784;50.734;7.086;2022-11-20T14:21:20;8.30;81.43
68801;SHT31;55784;50.734;7.086;2022-11-20T14:24:03;8.33;81.53
68801;SHT31;55784;50.734;7.086;2022-11-20T14:26:43;8.33;81.76
68801;SHT31;55784;50.734;7.086;2022-11-20T14:29:37;8.33;81.78
68801;SHT31;55784;50.734;7.086;2022-11-20T14:32:10;8.31;81.85
68801;SHT31;55784;50.734;7.086;2022-11-20T14:34:39;8.30;82.04
68801;SHT31;55784;50.734;7.086;2022-11-20T14:37:11;8.27;82.24
68801;SHT31;55784;50.734;7.086;2022-11-20T14:39:56;8.27;82.42
68801;SHT31;55784;50.734;7.086;2022-11-20T14:42:32;8.30;82.51
68801;SHT31;55784;50.734;7.086;2022-11-20T14:48:43;8.28;82.87
68801;SHT31;55784;50.734;7.086;2022-11-20T14:51:35;8.26;83.40
68801;SHT31;55784;50.734;7.086;2022-11-20T14:54:18;8.24;83.60
68801;SHT31;55784;50.734;7.086;2022-11-20T14:57:03;8.27;84.21
68801;SHT31;55784;50.734;7.086;2022-11-20T14:59:32;8.23;84.72
68801;SHT31;55784;50.734;7.086;2022-11-20T15:02:24;8.17;85.16
68801;SHT31;55784;50.734;7.086;2022-11-20T15:04:58;8.06;85.89
68801;SHT31;55784;50.734;7.086;2022-11-20T15:08:06;8.08;86.20
68801;SHT31;55784;50.734;7.086;2022-11-20T15:10:32;8.07;87.19
68801;SHT31;55784;50.734;7.086;2022-11-20T15:19:27;8.23;87.91
68801;SHT31;55784;50.734;7.086;2022-11-20T15:22:17;8.23;87.69
68801;SHT31;55784;50.734;7.086;2022-11-20T15:25:26;8.17;88.72
68801;SHT31;55784;50.734;7.086;2022-11-20T15:31:21;8.20;88.85
68801;SHT31;55784;50.734;7.086;2022-11-20T15:34:04;8.14;88.50
68801;SHT31;55784;50.734;7.086;2022-11-20T15:36:32;8.20;88.05
68801;SHT31;55784;50.734;7.086;2022-11-20T15:38:58;8.17;88.17
68801;SHT31;55784;50.734;7.086;2022-11-20T15:41:38;8.18;88.82
68801;SHT31;55784;50.734;7.086;2022-11-20T15:44:21;8.08;88.80
68801;SHT31;55784;50.734;7.086;2022-11-20T15:46:47;8.04;89.33
68801;SHT31;55784;50.734;7.086;2022-11-20T15:49:16;7.97;88.47
68801;SHT31;55784;50.734;7.086;2022-11-20T15:51:48;7.97;88.90
68801;SHT31;55784;50.734;7.086;2022-11-20T15:57:24;7.89;89.64
68801;SHT31;55784;50.734;7.086;2022-11-20T16:03:21;7.79;90.51
68801;SHT31;55784;50.734;7.086;2022-11-20T16:06:01;7.75;91.08
68801;SHT31;55784;50.734;7.086;2022-11-20T16:08:45;7.79;90.45
68801;SHT31;55784;50.734;7.086;2022-11-20T16:11:23;7.73;90.91
68801;SHT31;55784;50.734;7.086;2022-11-20T16:20:31;7.72;91.32
68801;SHT31;55784;50.734;7.086;2022-11-20T16:23:07;7.73;91.30
68801;SHT31;55784;50.734;7.086;2022-11-20T16:26:09;7.67;91.79
68801;SHT31;55784;50.734;7.086;2022-11-20T16:28:37;7.63;92.05
68801;SHT31;55784;50.734;7.086;2022-11-20T16:31:10;7.65;92.19
68801;SHT31;55784;50.734;7.086;2022-11-20T16:34:09;7.66;91.40
68801;SHT31;55784;50.734;7.086;2022-11-20T16:37:05;7.65;91.91
68801;SHT31;55784;50.734;7.086;2022-11-20T16:45:10;7.61;92.72
68801;SHT31;55784;50.734;7.086;2022-11-20T16:48:03;7.48;93.02
68801;SHT31;55784;50.734;7.086;2022-11-20T16:50:59;7.53;92.90
68801;SHT31;55784;50.734;7.086;2022-11-20T16:53:29;7.43;92.99
68801;SHT31;55784;50.734;7.086;2022-11-20T16:57:14;7.42;93.31
68801;SHT31;55784;50.734;7.086;2022-11-20T16:59:21;7.48;93.17
68801;SHT31;55784;50.734;7.086;2022-11-20T17:01:58;7.45;93.02
68801;SHT31;55784;50.734;7.086;2022-11-20T17:04:32;7.45;93.04
68801;SHT31;55784;50.734;7.086;2022-11-20T17:07:22;7.52;93.06
68801;SHT31;55784;50.734;7.086;2022-11-20T17:10:17;7.48;92.81
68801;SHT31;55784;50.734;7.086;2022-11-20T17:13:29;7.52;92.72
68801;SHT31;55784;50.734;7.086;2022-11-20T17:16:31;7.46;93.13
68801;SHT31;55784;50.734;7.086;2022-11-20T17:19:28;7.52;93.20
68801;SHT31;55784;50.734;7.086;2022-11-20T17:22:15;7.53;93.20
68801;SHT31;55784;50.734;7.086;2022-11-20T17:24:51;7.48;93.37
68801;SHT31;55784;50.734;7.086;2022-11-20T17:27:39;7.52;93.04
68801;SHT31;55784;50.734;7.086;2022-11-20T17:30:38;7.48;93.09
68801;SHT31;55784;50.734;7.086;2022-11-20T17:33:36;7.41;93.70
68801;SHT31;55784;50.734;7.086;2022-11-20T17:36:39;7.39;93.98
68801;SHT31;55784;50.734;7.086;2022-11-20T17:39:56;7.41;94.18
68801;SHT31;55784;50.734;7.086;2022-11-20T17:42:22;7.46;93.85
68801;SHT31;55784;50.734;7.086;2022-11-20T17:45:04;7.48;93.77
68801;SHT31;55784;50.734;7.086;2022-11-20T17:47:34;7.46;94.25
68801;SHT31;55784;50.734;7.086;2022-11-20T17:50:06;7.48;94.34
68801;SHT31;55784;50.734;7.086;2022-11-20T17:52:32;7.51;94.03
68801;SHT31;55784;50.734;7.086;2022-11-20T17:54:58;7.55;93.84
68801;SHT31;55784;50.734;7.086;2022-11-20T17:57:25;7.49;93.98
68801;SHT31;55784;50.734;7.086;2022-11-20T18:00:13;7.49;94.07
68801;SHT31;55784;50.734;7.086;2022-11-20T18:02:42;7.58;93.93
68801;SHT31;55784;50.734;7.086;2022-11-20T18:05:13;7.53;94.07
68801;SHT31;55784;50.734;7.086;2022-11-20T18:07:39;7.48;93.80
68801;SHT31;55784;50.734;7.086;2022-11-20T18:10:08;7.48;93.68
68801;SHT31;55784;50.734;7.086;2022-11-20T18:12:37;7.48;93.01
68801;SHT31;55784;50.734;7.086;2022-11-20T18:15:02;7.55;93.26
68801;SHT31;55784;50.734;7.086;2022-11-20T18:17:28;7.55;93.33
68801;SHT31;55784;50.734;7.086;2022-11-20T18:19:59;7.51;93.30
68801;SHT31;55784;50.734;7.086;2022-11-20T18:22:24;7.56;92.97
68801;SHT31;55784;50.734;7.086;2022-11-20T18:24:56;7.55;92.88
68801;SHT31;55784;50.734;7.086;2022-11-20T18:27:24;7.58;92.99
68801;SHT31;55784;50.734;7.086;2022-11-20T18:29:55;7.63;92.82
68801;SHT31;55784;50.734;7.086;2022-11-20T18:32:37;7.67;92.44
68801;SHT31;55784;50.734;7.086;2022-11-20T18:35:11;7.67;91.81
68801;SHT31;55784;50.734;7.086;2022-11-20T18:37:39;7.76;91.94
68801;SHT31;55784;50.734;7.086;2022-11-20T18:40:05;7.80;91.23
68801;SHT31;55784;50.734;7.086;2022-11-20T18:42:31;7.84;91.05
68801;SHT31;55784;50.734;7.086;2022-11-20T18:45:15;7.87;90.84
68801;SHT31;55784;50.734;7.086;2022-11-20T18:47:44;7.93;91.11
68801;SHT31;55784;50.734;7.086;2022-11-20T18:50:09;7.91;90.69
68801;SHT31;55784;50.734;7.086;2022-11-20T18:52:43;7.89;90.56
68801;SHT31;55784;50.734;7.086;2022-11-20T18:55:12;7.91;90.75
68801;SHT31;55784;50.734;7.086;2022-11-20T18:57:41;7.93;90.77
68801;SHT31;55784;50.734;7.086;2022-11-20T19:00:10;7.94;90.39
68801;SHT31;55784;50.734;7.086;2022-11-20T19:02:36;7.89;90.31
68801;SHT31;55784;50.734;7.086;2022-11-20T19:05:13;7.84;90.67
68801;SHT31;55784;50.734;7.086;2022-11-20T19:07:39;7.76;90.75
68801;SHT31;55784;50.734;7.086;2022-11-20T19:10:04;7.69;90.98
68801;SHT31;55784;50.734;7.086;2022-11-20T19:12:30;7.67;91.06
68801;SHT31;55784;50.734;7.086;2022-11-20T19:14:55;7.63;91.32
68801;SHT31;55784;50.734;7.086;2022-11-20T19:17:22;7.67;91.50